createdAt,value
2019-03-25T00:02:18.163Z,91.00
2019-03-25T00:04:46.613Z,91.10
2019-03-25T00:07:15.038Z,91.30
2019-03-25T00:09:43.441Z,91.40
2019-03-25T00:12:11.828Z,91.60
2019-03-25T00:14:40.209Z,91.70
2019-03-25T00:17:08.645Z,91.80
2019-03-25T00:19:37.057Z,92.00
2019-03-25T00:22:05.429Z,92.10
2019-03-25T00:24:38.589Z,92.10
2019-03-25T00:27:03.870Z,92.00
2019-03-25T00:29:32.286Z,92.10
2019-03-25T00:32:00.694Z,92.30
2019-03-25T00:34:29.099Z,92.20
2019-03-25T00:36:57.485Z,92.40
2019-03-25T00:39:26.043Z,92.40
2019-03-25T00:41:55.577Z,92.40
2019-03-25T00:44:23.993Z,92.60
2019-03-25T00:46:52.406Z,92.60
2019-03-25T00:49:20.811Z,92.60
2019-03-25T00:51:49.187Z,92.80
2019-03-25T00:54:17.568Z,92.80
2019-03-25T00:56:45.981Z,92.90
2019-03-25T00:59:14.397Z,93.10
2019-03-25T01:01:42.770Z,93.10
2019-03-25T01:04:11.214Z,92.90
2019-03-25T01:06:39.667Z,92.80
2019-03-25T01:09:08.033Z,92.90
2019-03-25T01:11:36.446Z,92.90
2019-03-25T01:14:04.870Z,93.10
2019-03-25T01:16:33.361Z,93.20
2019-03-25T01:19:01.742Z,93.00
2019-03-25T01:21:30.158Z,93.10
2019-03-25T01:23:58.595Z,93.20
2019-03-25T01:26:27.002Z,93.30
2019-03-25T01:28:55.406Z,93.40
2019-03-25T01:31:23.859Z,93.40
2019-03-25T01:33:52.279Z,93.60
2019-03-25T01:36:20.696Z,93.60
2019-03-25T01:38:49.174Z,93.60
2019-03-25T01:41:17.543Z,93.70
2019-03-25T01:43:45.923Z,93.80
2019-03-25T01:46:14.339Z,93.90
2019-03-25T01:48:42.712Z,93.80
2019-03-25T01:51:11.121Z,93.90
2019-03-25T01:53:39.546Z,93.90
2019-03-25T01:56:07.945Z,93.80
2019-03-25T01:58:36.407Z,93.70
2019-03-25T02:01:04.801Z,93.60
2019-03-25T02:03:33.239Z,93.40
2019-03-25T02:06:01.641Z,93.40
2019-03-25T02:08:30.033Z,93.50
2019-03-25T02:10:58.446Z,93.50
2019-03-25T02:13:26.881Z,93.50
2019-03-25T02:15:55.286Z,93.40
2019-03-25T02:18:23.660Z,93.20
2019-03-25T02:20:52.066Z,93.40
2019-03-25T02:23:20.474Z,93.40
2019-03-25T02:25:48.853Z,93.40
2019-03-25T02:28:17.264Z,93.30
2019-03-25T02:30:45.639Z,93.30
2019-03-25T02:33:14.004Z,93.40
2019-03-25T02:35:42.410Z,93.60
2019-03-25T02:38:10.809Z,93.40
2019-03-25T02:40:39.246Z,93.50
2019-03-25T02:43:07.618Z,93.50
2019-03-25T02:45:36.045Z,93.60
2019-03-25T02:48:04.431Z,93.70
2019-03-25T02:50:32.835Z,93.80
2019-03-25T02:53:01.347Z,93.90
2019-03-25T02:55:41.274Z,93.80
2019-03-25T02:57:59.762Z,93.80
2019-03-25T03:00:35.706Z,93.90
2019-03-25T03:03:05.184Z,94.00
2019-03-25T03:05:33.687Z,93.90
2019-03-25T03:08:02.086Z,93.90
2019-03-25T03:10:30.519Z,93.90
2019-03-25T03:12:58.925Z,93.90
2019-03-25T03:15:27.408Z,94.00
2019-03-25T03:17:56.295Z,94.00
2019-03-25T03:20:25.832Z,94.00
2019-03-25T03:22:54.208Z,93.90
2019-03-25T03:25:22.665Z,93.80
2019-03-25T03:27:51.020Z,93.90
2019-03-25T03:30:19.417Z,93.80
2019-03-25T03:32:47.902Z,93.70
2019-03-25T03:35:16.298Z,93.70
2019-03-25T03:37:44.705Z,93.80
2019-03-25T03:40:13.152Z,93.80
2019-03-25T03:42:41.572Z,93.80
2019-03-25T03:45:09.974Z,93.60
2019-03-25T03:47:38.373Z,93.80
2019-03-25T03:50:08.420Z,93.80
2019-03-25T03:52:36.835Z,94.00
2019-03-25T03:55:06.131Z,94.20
2019-03-25T03:57:33.842Z,94.50
2019-03-25T04:00:02.519Z,94.50
2019-03-25T04:02:30.922Z,94.20
2019-03-25T04:04:59.333Z,94.20
2019-03-25T04:07:27.760Z,94.20
2019-03-25T04:09:56.171Z,94.20
2019-03-25T04:12:24.569Z,94.10
2019-03-25T04:14:53.002Z,94.20
2019-03-25T04:17:21.429Z,94.30
2019-03-25T04:19:49.860Z,94.40
2019-03-25T04:22:18.234Z,94.50
2019-03-25T04:24:46.685Z,94.70
2019-03-25T04:27:15.090Z,94.10
2019-03-25T04:29:43.507Z,94.30
2019-03-25T04:32:12.056Z,94.40
2019-03-25T04:34:40.535Z,94.40
2019-03-25T04:37:08.915Z,94.20
2019-03-25T04:39:37.313Z,94.10
2019-03-25T04:42:05.751Z,94.10
2019-03-25T04:44:34.153Z,94.10
2019-03-25T04:47:02.563Z,94.30
2019-03-25T04:49:30.994Z,94.30
2019-03-25T04:51:59.386Z,94.60
2019-03-25T04:54:27.795Z,94.30
2019-03-25T04:56:56.232Z,94.40
2019-03-25T04:59:24.634Z,94.40
2019-03-25T05:01:53.000Z,94.10
2019-03-25T05:04:21.494Z,93.90
2019-03-25T05:06:49.816Z,93.70
2019-03-25T05:09:18.161Z,93.60
2019-03-25T05:11:46.582Z,93.70
2019-03-25T05:14:15.035Z,93.70
2019-03-25T05:16:43.459Z,93.60
2019-03-25T05:19:11.862Z,93.60
2019-03-25T05:21:40.233Z,93.70
2019-03-25T05:24:08.755Z,93.30
2019-03-25T05:26:37.141Z,93.20
2019-03-25T05:29:05.606Z,92.90
2019-03-25T05:31:33.962Z,92.60
2019-03-25T05:34:02.365Z,92.30
2019-03-25T05:36:30.824Z,92.30
2019-03-25T05:38:59.235Z,92.30
2019-03-25T05:41:27.680Z,92.00
2019-03-25T05:43:56.162Z,92.00
2019-03-25T05:46:24.645Z,91.70
2019-03-25T05:48:53.034Z,91.50
2019-03-25T05:51:21.416Z,91.30
2019-03-25T05:53:49.875Z,90.80
2019-03-25T05:56:18.272Z,90.40
2019-03-25T05:58:46.738Z,90.10
2019-03-25T06:01:15.370Z,89.90
2019-03-25T06:03:43.802Z,87.30
2019-03-25T06:06:12.282Z,85.70
2019-03-25T06:08:40.657Z,86.70
2019-03-25T06:11:09.029Z,86.10
2019-03-25T06:13:37.439Z,82.50
2019-03-25T06:16:05.838Z,77.60
2019-03-25T06:18:34.238Z,75.40
2019-03-25T06:21:02.647Z,73.00
2019-03-25T06:23:31.045Z,73.50
2019-03-25T06:25:59.520Z,74.90
2019-03-25T06:28:27.882Z,74.60
2019-03-25T06:30:56.272Z,73.30
2019-03-25T06:33:24.653Z,74.40
2019-03-25T06:35:53.054Z,71.60
2019-03-25T06:38:21.483Z,67.20
2019-03-25T06:40:49.891Z,62.00
2019-03-25T06:43:18.297Z,55.60
2019-03-25T06:45:46.712Z,52.30
2019-03-25T06:48:15.163Z,50.00
2019-03-25T06:50:43.563Z,46.20
2019-03-25T06:53:12.019Z,41.40
2019-03-25T06:55:40.393Z,37.80
2019-03-25T06:58:08.821Z,38.40
2019-03-25T07:00:37.251Z,35.80
2019-03-25T07:03:05.706Z,34.20
2019-03-25T07:05:34.133Z,35.70
2019-03-25T07:08:02.675Z,39.00
2019-03-25T07:10:32.720Z,41.10
2019-03-25T07:13:01.520Z,41.40
2019-03-25T07:15:29.913Z,42.30
2019-03-25T07:17:58.469Z,41.20
2019-03-25T07:20:26.875Z,39.60
2019-03-25T07:22:55.401Z,36.20
2019-03-25T07:25:23.790Z,34.90
2019-03-25T07:27:52.189Z,34.40
2019-03-25T07:30:20.624Z,35.60
2019-03-25T07:32:49.035Z,32.10
2019-03-25T07:35:17.465Z,35.60
2019-03-25T07:37:45.880Z,35.10
2019-03-25T07:40:14.253Z,34.50
2019-03-25T07:42:43.002Z,31.20
2019-03-25T07:45:11.833Z,30.20
2019-03-25T07:47:40.227Z,30.20
2019-03-25T07:50:08.634Z,30.60
2019-03-25T07:52:37.039Z,31.20
2019-03-25T07:55:06.273Z,32.90
2019-03-25T07:57:35.023Z,31.80
2019-03-25T08:00:14.246Z,30.90
2019-03-25T08:02:42.874Z,31.30
2019-03-25T08:05:11.290Z,31.30
2019-03-25T08:07:39.695Z,31.70
2019-03-25T08:10:08.285Z,38.60
2019-03-25T08:12:36.779Z,39.20
2019-03-25T08:15:06.945Z,38.40
2019-03-25T08:17:35.330Z,39.90
2019-03-25T08:20:06.573Z,40.40
2019-03-25T08:22:34.980Z,40.40
2019-03-25T08:25:04.213Z,40.40
2019-03-25T08:27:32.726Z,41.10
2019-03-25T08:30:01.138Z,44.00
2019-03-25T08:32:29.664Z,45.60
2019-03-25T08:34:58.122Z,45.90
2019-03-25T08:37:26.492Z,48.00
2019-03-25T08:39:54.867Z,49.70
2019-03-25T08:42:23.380Z,52.20
2019-03-25T08:44:51.860Z,55.90
2019-03-25T08:47:20.449Z,56.40
2019-03-25T08:49:48.844Z,55.90
2019-03-25T08:52:17.316Z,55.60
2019-03-25T08:54:45.788Z,54.80
2019-03-25T08:57:14.207Z,53.90
2019-03-25T08:59:42.613Z,55.80
2019-03-25T09:02:11.022Z,56.20
2019-03-25T09:04:39.449Z,56.80
2019-03-25T09:07:07.831Z,60.10
2019-03-25T09:09:36.258Z,66.10
2019-03-25T09:12:04.776Z,68.00
2019-03-25T09:14:33.229Z,69.80
2019-03-25T09:17:01.631Z,70.20
2019-03-25T09:19:30.688Z,69.80
2019-03-25T09:21:59.337Z,70.90
2019-03-25T09:24:27.721Z,73.00
2019-03-25T09:26:56.108Z,71.30
2019-03-25T09:29:24.519Z,68.30
2019-03-25T09:31:52.965Z,62.30
2019-03-25T09:34:21.357Z,56.00
2019-03-25T09:36:49.770Z,54.10
2019-03-25T09:39:18.173Z,51.30
2019-03-25T09:41:46.577Z,51.80
2019-03-25T09:44:14.960Z,52.30
2019-03-25T09:46:43.334Z,54.90
2019-03-25T09:49:11.760Z,55.20
2019-03-25T09:51:40.221Z,57.30
2019-03-25T09:54:08.664Z,59.70
2019-03-25T09:56:37.113Z,60.80
2019-03-25T09:59:05.492Z,61.80
2019-03-25T10:01:33.892Z,63.80
2019-03-25T10:04:02.324Z,66.00
2019-03-25T10:06:30.739Z,64.40
2019-03-25T10:08:59.142Z,63.40
2019-03-25T10:11:27.563Z,62.80
2019-03-25T10:13:56.001Z,61.00
2019-03-25T10:16:24.430Z,60.40
2019-03-25T10:18:52.843Z,59.20
2019-03-25T10:21:21.254Z,58.80
2019-03-25T10:23:49.680Z,60.40
2019-03-25T10:26:18.086Z,61.90
2019-03-25T10:28:48.803Z,63.90
2019-03-25T10:31:17.546Z,61.80
2019-03-25T10:33:46.019Z,61.20
2019-03-25T10:36:14.393Z,61.50
2019-03-25T10:38:42.908Z,59.80
2019-03-25T10:41:11.325Z,60.00
2019-03-25T10:43:39.730Z,58.20
2019-03-25T10:46:08.105Z,56.20
2019-03-25T10:48:36.622Z,57.30
2019-03-25T10:51:04.998Z,55.80
2019-03-25T10:53:33.375Z,54.30
2019-03-25T10:56:01.765Z,52.60
2019-03-25T10:58:30.099Z,51.70
2019-03-25T11:00:58.519Z,51.80
2019-03-25T11:03:26.999Z,52.10
2019-03-25T11:05:55.365Z,52.40
2019-03-25T11:08:23.775Z,52.20
2019-03-25T11:10:52.191Z,50.90
2019-03-25T11:13:20.567Z,50.20
2019-03-25T11:15:48.965Z,51.80
2019-03-25T11:18:17.469Z,52.70
2019-03-25T11:20:45.905Z,52.20
2019-03-25T11:23:14.319Z,52.30
2019-03-25T11:25:42.718Z,52.60
2019-03-25T11:28:12.336Z,51.50
2019-03-25T11:30:51.779Z,51.20
2019-03-25T11:33:20.219Z,49.50
2019-03-25T11:35:48.618Z,51.20
2019-03-25T11:38:17.020Z,50.50
2019-03-25T11:40:45.480Z,51.00
2019-03-25T11:43:13.844Z,52.40
2019-03-25T11:45:42.280Z,52.00
2019-03-25T11:48:11.070Z,51.00
2019-03-25T11:50:39.493Z,51.70
2019-03-25T11:53:07.895Z,52.10
2019-03-25T11:55:36.293Z,50.80
2019-03-25T11:58:04.842Z,50.90
2019-03-25T12:00:33.244Z,51.90
2019-03-25T12:03:01.650Z,52.60
2019-03-25T12:05:30.058Z,55.50
2019-03-25T12:07:58.491Z,56.30
2019-03-25T12:10:26.901Z,57.60
2019-03-25T12:12:55.298Z,56.50
2019-03-25T12:15:23.713Z,57.10
2019-03-25T12:17:52.120Z,56.70
2019-03-25T12:20:20.521Z,56.00
2019-03-25T12:22:48.920Z,56.50
2019-03-25T12:25:17.367Z,57.60
2019-03-25T12:27:45.904Z,67.20
2019-03-25T12:30:14.290Z,73.60
2019-03-25T12:32:42.691Z,76.50
2019-03-25T12:35:11.097Z,80.30
2019-03-25T12:37:39.506Z,83.10
2019-03-25T12:40:08.185Z,85.80
2019-03-25T12:42:36.642Z,88.00
2019-03-25T12:45:06.789Z,88.10
2019-03-25T12:47:35.165Z,87.60
2019-03-25T12:50:04.685Z,88.80
2019-03-25T12:52:33.101Z,87.20
2019-03-25T12:55:01.507Z,86.80
2019-03-25T12:57:29.908Z,87.10
2019-03-25T12:59:58.300Z,86.40
2019-03-25T13:02:26.680Z,85.30
2019-03-25T13:04:55.090Z,85.60
2019-03-25T13:07:23.522Z,82.90
2019-03-25T13:09:51.895Z,82.00
2019-03-25T13:12:20.398Z,83.90
2019-03-25T13:14:48.879Z,81.90
2019-03-25T13:17:17.269Z,77.50
2019-03-25T13:19:45.741Z,75.80
2019-03-25T13:22:14.206Z,80.20
2019-03-25T13:24:42.616Z,75.90
2019-03-25T13:27:10.978Z,75.30
2019-03-25T13:29:39.350Z,73.70
2019-03-25T13:32:07.753Z,75.20
2019-03-25T13:34:36.125Z,74.00
2019-03-25T13:37:04.525Z,70.80
2019-03-25T13:39:32.927Z,71.90
2019-03-25T13:42:01.455Z,73.40
2019-03-25T13:44:29.858Z,71.20
2019-03-25T13:46:58.262Z,71.00
2019-03-25T13:49:26.663Z,71.40
2019-03-25T13:51:55.071Z,71.10
2019-03-25T13:54:23.445Z,72.00
2019-03-25T13:56:51.860Z,72.50
2019-03-25T13:59:20.249Z,74.10
2019-03-25T14:01:48.627Z,73.00
2019-03-25T14:04:17.031Z,70.30
2019-03-25T14:06:45.400Z,70.20
2019-03-25T14:09:13.842Z,72.70
2019-03-25T14:11:42.236Z,68.40
2019-03-25T14:14:10.671Z,69.10
2019-03-25T14:16:39.069Z,67.80
2019-03-25T14:19:07.473Z,68.10
2019-03-25T14:21:35.884Z,66.40
2019-03-25T14:24:04.321Z,66.40
2019-03-25T14:26:32.681Z,66.50
2019-03-25T14:29:01.097Z,63.40
2019-03-25T14:31:29.501Z,62.70
2019-03-25T14:33:57.906Z,63.20
2019-03-25T14:36:26.301Z,63.00
2019-03-25T14:38:54.702Z,65.60
2019-03-25T14:41:23.082Z,62.80
2019-03-25T14:43:51.494Z,62.40
2019-03-25T14:46:19.895Z,62.00
2019-03-25T14:48:48.269Z,62.80
2019-03-25T14:51:16.775Z,62.90
2019-03-25T14:53:45.605Z,63.40
2019-03-25T14:56:14.044Z,65.10
2019-03-25T14:58:42.446Z,67.90
2019-03-25T15:01:10.856Z,68.50
2019-03-25T15:03:39.234Z,69.80
2019-03-25T15:06:07.635Z,70.10
2019-03-25T15:08:36.002Z,69.40
2019-03-25T15:11:04.376Z,69.20
2019-03-25T15:13:32.773Z,70.40
2019-03-25T15:16:01.275Z,71.00
2019-03-25T15:18:29.641Z,73.00
2019-03-25T15:20:58.133Z,71.60
2019-03-25T15:23:26.617Z,72.30
2019-03-25T15:25:55.013Z,71.00
2019-03-25T15:28:23.430Z,73.20
2019-03-25T15:30:51.880Z,73.10
2019-03-25T15:33:20.335Z,73.60
2019-03-25T15:35:48.771Z,74.80
2019-03-25T15:38:17.227Z,75.60
2019-03-25T15:40:45.671Z,76.20
2019-03-25T15:43:14.054Z,76.70
2019-03-25T15:45:42.399Z,78.30
2019-03-25T15:48:10.913Z,80.60
2019-03-25T15:50:39.308Z,82.40
2019-03-25T15:53:07.709Z,85.20
2019-03-25T15:55:36.046Z,86.80
2019-03-25T15:58:04.425Z,89.30
2019-03-25T16:00:32.831Z,89.00
2019-03-25T16:03:01.242Z,90.40
2019-03-25T16:05:29.618Z,90.60
2019-03-25T16:07:58.015Z,91.30
2019-03-25T16:10:26.393Z,91.70
2019-03-25T16:12:54.810Z,92.20
2019-03-25T16:15:38.359Z,93.10
2019-03-25T16:18:09.667Z,92.30
2019-03-25T16:20:38.038Z,92.20
2019-03-25T16:23:06.444Z,92.30
2019-03-25T16:25:34.918Z,92.30
2019-03-25T16:28:03.349Z,92.10
2019-03-25T16:30:31.760Z,92.20
2019-03-25T16:33:00.158Z,92.50
2019-03-25T16:35:28.597Z,92.80
2019-03-25T16:37:57.008Z,92.20
2019-03-25T16:40:25.494Z,92.50
2019-03-25T16:42:53.934Z,92.80
2019-03-25T16:45:22.358Z,93.20
2019-03-25T16:47:50.870Z,93.50
2019-03-25T16:50:19.265Z,93.70
2019-03-25T16:52:47.677Z,93.50
2019-03-25T16:55:16.182Z,94.00
2019-03-25T16:57:44.578Z,94.00
2019-03-25T17:00:12.963Z,94.50
2019-03-25T17:02:41.425Z,94.50
2019-03-25T17:05:09.900Z,94.30
2019-03-25T17:07:38.354Z,94.50
2019-03-25T17:10:06.758Z,94.90
2019-03-25T17:12:35.155Z,94.90
2019-03-25T17:15:04.797Z,94.70
2019-03-25T17:17:33.287Z,94.30
2019-03-25T17:20:01.838Z,93.90
2019-03-25T17:22:30.250Z,93.70
2019-03-25T17:24:58.681Z,93.80
2019-03-25T17:27:27.150Z,93.80
2019-03-25T17:29:55.560Z,93.50
2019-03-25T17:32:23.963Z,93.80
2019-03-25T17:34:52.390Z,93.60
2019-03-25T17:37:20.849Z,93.00
2019-03-25T17:39:49.238Z,92.30
2019-03-25T17:42:17.731Z,91.50
2019-03-25T17:44:46.132Z,91.50
2019-03-25T17:47:14.721Z,92.00
2019-03-25T17:49:43.093Z,91.20
2019-03-25T17:52:11.502Z,90.60
2019-03-25T17:54:40.026Z,90.40
2019-03-25T17:57:08.437Z,90.50
2019-03-25T17:59:37.794Z,89.40
2019-03-25T18:02:06.321Z,89.30
2019-03-25T18:04:34.729Z,89.50
2019-03-25T18:07:03.156Z,90.00
2019-03-25T18:09:31.567Z,90.40
2019-03-25T18:11:59.933Z,91.10
2019-03-25T18:14:28.421Z,90.50
2019-03-25T18:16:56.823Z,90.60
2019-03-25T18:19:25.233Z,90.40
2019-03-25T18:21:53.865Z,90.60
2019-03-25T18:24:22.213Z,90.10
2019-03-25T18:26:50.692Z,89.50
2019-03-25T18:29:19.094Z,89.20
2019-03-25T18:31:47.517Z,89.00
2019-03-25T18:34:15.891Z,87.40
2019-03-25T18:36:44.412Z,87.30
2019-03-25T18:39:12.782Z,87.80
2019-03-25T18:41:41.156Z,86.90
2019-03-25T18:44:09.645Z,86.90
2019-03-25T18:46:38.014Z,86.10
2019-03-25T18:49:06.374Z,87.80
2019-03-25T18:51:35.995Z,86.90
2019-03-25T18:54:04.582Z,88.10
2019-03-25T18:56:33.079Z,87.00
2019-03-25T18:59:01.484Z,87.50
2019-03-25T19:01:29.866Z,87.10
2019-03-25T19:03:58.302Z,87.20
2019-03-25T19:06:26.674Z,87.20
2019-03-25T19:08:55.109Z,86.30
2019-03-25T19:11:31.020Z,86.60
2019-03-25T19:13:53.574Z,85.60
2019-03-25T19:16:22.055Z,85.60
2019-03-25T19:18:50.443Z,85.90
2019-03-25T19:21:18.896Z,85.80
2019-03-25T19:23:47.313Z,86.30
2019-03-25T19:26:15.740Z,86.90
2019-03-25T19:28:44.105Z,86.70
2019-03-25T19:31:12.514Z,86.50
2019-03-25T19:33:40.917Z,86.00
2019-03-25T19:36:09.384Z,85.90
2019-03-25T19:38:37.822Z,87.00
2019-03-25T19:41:06.254Z,87.80
2019-03-25T19:43:34.655Z,88.40
2019-03-25T19:46:03.064Z,88.10
2019-03-25T19:48:31.619Z,88.70
2019-03-25T19:51:00.009Z,88.90
2019-03-25T19:53:28.414Z,88.00
2019-03-25T19:55:56.825Z,86.90
2019-03-25T19:58:25.154Z,86.90
2019-03-25T20:00:53.549Z,87.50
2019-03-25T20:03:21.942Z,87.90
2019-03-25T20:05:50.311Z,88.30
2019-03-25T20:08:18.804Z,88.70
2019-03-25T20:10:47.276Z,87.80
2019-03-25T20:13:15.754Z,87.50
2019-03-25T20:15:46.539Z,87.60
2019-03-25T20:18:14.222Z,88.50
2019-03-25T20:20:42.625Z,89.00
2019-03-25T20:23:11.106Z,90.20
2019-03-25T20:25:39.495Z,90.00
2019-03-25T20:28:07.912Z,89.40
2019-03-25T20:30:36.324Z,89.20
2019-03-25T20:33:04.706Z,89.00
2019-03-25T20:35:33.229Z,87.70
2019-03-25T20:38:01.607Z,87.60
2019-03-25T20:40:30.062Z,86.40
2019-03-25T20:42:58.449Z,86.20
2019-03-25T20:45:26.862Z,86.30
2019-03-25T20:47:55.309Z,86.30
2019-03-25T20:50:23.819Z,86.10
2019-03-25T20:52:52.253Z,86.50
2019-03-25T20:55:20.640Z,85.10
2019-03-25T20:57:49.018Z,85.60
2019-03-25T21:00:20.653Z,86.30
2019-03-25T21:02:49.063Z,87.10
2019-03-25T21:05:17.580Z,87.70
2019-03-25T21:07:46.016Z,87.40
2019-03-25T21:10:14.459Z,87.80
2019-03-25T21:12:42.895Z,88.30
2019-03-25T21:15:11.422Z,88.50
2019-03-25T21:17:39.803Z,88.20
2019-03-25T21:20:08.978Z,88.70
2019-03-25T21:22:37.381Z,88.10
2019-03-25T21:25:06.817Z,89.10
2019-03-25T21:27:35.214Z,89.30
2019-03-25T21:30:05.049Z,89.50
2019-03-25T21:32:33.476Z,90.30
2019-03-25T21:35:01.902Z,90.40
2019-03-25T21:37:30.380Z,90.20
2019-03-25T21:39:58.761Z,90.50
2019-03-25T21:42:29.115Z,90.70
2019-03-25T21:44:57.204Z,90.90
2019-03-25T21:47:25.576Z,91.00
2019-03-25T21:49:53.995Z,91.00
2019-03-25T21:52:22.581Z,90.90
2019-03-25T21:54:51.101Z,90.90
2019-03-25T21:57:19.604Z,90.60
2019-03-25T21:59:48.005Z,90.20
2019-03-25T22:02:16.523Z,90.20
2019-03-25T22:04:44.909Z,90.00
2019-03-25T22:07:13.338Z,89.80
2019-03-25T22:09:41.853Z,89.00
2019-03-25T22:12:10.241Z,89.50
2019-03-25T22:14:38.658Z,88.90
2019-03-25T22:17:07.135Z,87.90
2019-03-25T22:19:35.494Z,87.70
2019-03-25T22:22:03.895Z,86.60
2019-03-25T22:24:32.416Z,86.20
2019-03-25T22:27:00.821Z,86.30
2019-03-25T22:29:29.194Z,86.30
2019-03-25T22:31:57.603Z,86.50
2019-03-25T22:34:25.985Z,86.90
2019-03-25T22:36:54.369Z,86.40
2019-03-25T22:39:22.777Z,87.50
2019-03-25T22:41:51.153Z,87.70
2019-03-25T22:44:19.566Z,87.90
2019-03-25T22:46:47.978Z,88.00
2019-03-25T22:49:16.348Z,88.40
2019-03-25T22:51:44.769Z,88.30
2019-03-25T22:54:13.173Z,88.00
2019-03-25T22:56:41.568Z,88.60
2019-03-25T22:59:09.938Z,89.50
2019-03-25T23:01:38.665Z,90.00
2019-03-25T23:04:07.006Z,90.20
2019-03-25T23:06:35.496Z,90.40
2019-03-25T23:09:05.848Z,91.00
2019-03-25T23:11:34.262Z,91.00
2019-03-25T23:14:02.676Z,91.20
2019-03-25T23:16:31.101Z,91.40
2019-03-25T23:18:59.501Z,91.50
2019-03-25T23:21:27.902Z,91.50
2019-03-25T23:23:56.332Z,91.40
2019-03-25T23:26:24.762Z,91.10
2019-03-25T23:28:53.160Z,90.80
2019-03-25T23:31:21.591Z,90.90
2019-03-25T23:33:52.524Z,90.40
2019-03-25T23:36:20.132Z,90.30
2019-03-25T23:38:48.565Z,90.40
2019-03-25T23:41:16.958Z,90.20
2019-03-25T23:43:45.380Z,90.10
2019-03-25T23:46:13.801Z,90.20
2019-03-25T23:48:42.177Z,89.90
2019-03-25T23:51:10.765Z,89.70
2019-03-25T23:53:39.168Z,89.70
2019-03-25T23:56:07.581Z,90.00
2019-03-25T23:58:35.988Z,89.00
